Time;durP1;ratioP1;P1;durP2;ratioP2;P2;SDS_P1;SDS_P2;PMS_P1;PMS_P2;Temp;Humidity;BMP_temperature;BMP_pressure;BME280_temperature;BME280_humidity;BME280_pressure;Samples;Min_cycle;Max_cycle;Signal;HPM_P1;HPM_P2
2023/04/16 00:01:21;;;;;;;;;;;14.80;55.90;;;13.51;57.40;101060.25;12255419;19;20249;-83
2023/04/16 00:05:23;;;;;;;;;;;14.80;55.90;;;13.62;57.50;101083.19;12253712;19;19974;-83
2023/04/16 00:09:25;;;;;;;;;;;14.80;55.90;;;13.54;57.43;101069.72;12254190;19;19966;-83
2023/04/16 00:13:26;;;;;;;;;;;14.80;55.90;;;13.60;57.51;101083.28;12255219;19;19919;-83
2023/04/16 00:17:28;;;;;;;;;;;14.80;55.90;;;13.55;57.53;101084.50;12252201;19;19929;-83
2023/04/16 00:21:30;;;;;;;;;;;14.80;55.90;;;13.50;57.49;101069.03;12253763;19;20452;-83
2023/04/16 00:25:31;;;;;;;;;;;14.80;55.80;;;13.40;57.50;101052.19;12253785;19;19937;-83
2023/04/16 00:29:33;;;;;;;;;;;14.80;55.80;;;13.62;57.59;101089.28;12253459;19;19930;-82
2023/04/16 00:33:36;;;;;;;;;;;14.80;55.90;;;13.31;57.55;101037.84;12250800;19;19919;-83
2023/04/16 00:37:38;;;;;;;;;;;14.80;55.80;;;13.55;57.44;101074.84;12249562;19;19915;-83
2023/04/16 00:41:42;;;;;;;;;;;14.80;55.80;;;13.53;57.52;101071.50;12250319;19;19929;-85
2023/04/16 00:45:44;;;;;;;;;;;14.80;55.80;;;13.64;57.53;101095.28;12247742;19;19931;-84
2023/04/16 00:49:46;;;;;;;;;;;14.80;55.80;;;13.57;57.52;101080.84;12249947;19;20533;-85
2023/04/16 00:53:47;;;;;;;;;;;14.80;55.90;;;13.58;57.50;101093.00;12249689;19;19986;-85
2023/04/16 00:57:49;;;;;;;;;;;14.80;56.00;;;13.51;57.47;101078.59;12250609;19;19915;-84
2023/04/16 01:01:50;;;;;;;;;;;14.80;56.00;;;13.50;57.49;101079.53;12249333;19;19922;-84
2023/04/16 01:05:52;;;;;;;;;;;14.80;56.00;;;13.44;57.60;101069.41;12248398;19;19919;-84
2023/04/16 01:09:54;;;;;;;;;;;14.90;56.00;;;13.51;57.52;101089.09;12248400;19;20257;-85
2023/04/16 01:13:55;;;;;;;;;;;14.80;56.10;;;13.34;57.59;101073.53;12250506;19;19922;-85
2023/04/16 01:17:57;;;;;;;;;;;14.70;56.10;;;13.52;57.57;101103.91;12247881;19;19919;-84
2023/04/16 01:21:59;;;;;;;;;;;14.80;56.20;;;13.34;57.62;101073.53;12250157;19;20376;-84
2023/04/16 01:26:01;;;;;;;;;;;14.70;56.10;;;13.49;57.60;101098.84;12248458;19;19942;-85
2023/04/16 01:30:03;;;;;;;;;;;14.70;56.10;;;13.27;57.58;101065.22;12248327;19;20593;-84
2023/04/16 01:34:15;;;;;;;;;;;14.70;56.20;;;13.34;57.55;101081.41;12244607;19;19930;-84
2023/04/16 01:38:17;;;;;;;;;;;14.70;56.10;;;13.21;57.54;101061.16;12246371;19;19973;-84
2023/04/16 01:42:18;;;;;;;;;;;14.70;56.20;;;13.43;57.54;101104.47;12248162;19;19971;-84
2023/04/16 01:46:26;;;;;;;;;;;14.70;56.20;;;13.49;57.70;101106.72;12244257;19;19922;-84
2023/04/16 01:50:28;;;;;;;;;;;14.70;56.10;;;13.40;57.71;101100.25;12248870;19;19975;-84
2023/04/16 01:54:30;;;;;;;;;;;14.70;56.10;;;13.40;57.65;101102.03;12247933;19;19918;-85
2023/04/16 01:58:33;;;;;;;;;;;14.70;56.20;;;13.48;57.70;101112.91;12245997;19;19923;-84
2023/04/16 02:02:35;;;;;;;;;;;14.70;56.10;;;13.48;57.71;101112.91;12247472;19;19926;-84
2023/04/16 02:06:38;;;;;;;;;;;14.70;56.10;;;13.50;57.48;101116.25;12244431;19;20397;-84
2023/04/16 02:10:40;;;;;;;;;;;14.70;56.10;;;13.43;57.71;101102.69;12245145;19;19950;-84
2023/04/16 02:14:42;;;;;;;;;;;14.80;56.20;;;13.55;57.60;101126.47;12246167;19;19934;-84
2023/04/16 02:18:44;;;;;;;;;;;14.70;56.10;;;13.41;57.60;101108.97;12253603;19;19910;-84
2023/04/16 02:22:49;;;;;;;;;;;14.70;56.10;;;13.38;57.60;101112.63;12258427;19;19918;-84
2023/04/16 02:26:53;;;;;;;;;;;14.70;56.10;;;13.48;57.56;101126.03;12252879;19;19932;-85
2023/04/16 02:30:55;;;;;;;;;;;14.70;56.10;;;13.36;57.93;101105.78;12257606;19;20253;-84
2023/04/16 02:34:57;;;;;;;;;;;14.70;56.10;;;13.33;57.68;101100.72;12256932;19;19935;-84
2023/04/16 02:38:59;;;;;;;;;;;14.80;56.20;;;13.45;57.69;101118.34;12252536;19;19934;-84
2023/04/16 02:43:00;;;;;;;;;;;14.70;56.20;;;13.41;57.74;101129.94;12257982;19;19931;-84
2023/04/16 02:47:02;;;;;;;;;;;14.80;56.20;;;13.55;57.79;101144.84;12253806;19;19911;-84
2023/04/16 02:51:04;;;;;;;;;;;14.80;56.10;;;13.53;57.69;101144.97;12258937;19;19919;-84
2023/04/16 02:55:06;;;;;;;;;;;14.70;56.10;;;13.53;57.74;101142.34;12256196;19;19915;-84
2023/04/16 02:59:07;;;;;;;;;;;14.70;56.10;;;13.51;57.73;101138.97;12252512;19;19915;-84
2023/04/16 03:03:09;;;;;;;;;;;14.80;56.10;;;13.53;57.72;101142.34;12256739;19;19918;-84
2023/04/16 03:07:12;;;;;;;;;;;14.70;56.10;;;13.39;57.77;101130.03;12251253;19;19923;-84
2023/04/16 03:11:14;;;;;;;;;;;14.80;56.20;;;13.46;57.79;101143.63;12255682;19;19919;-84
2023/04/16 03:15:15;;;;;;;;;;;14.80;56.20;;;13.47;57.77;101147.94;12254780;19;19930;-84
2023/04/16 03:19:17;;;;;;;;;;;14.70;56.20;;;13.50;57.80;101158.25;12250827;19;19926;-84
2023/04/16 03:23:19;;;;;;;;;;;14.70;56.50;;;13.40;57.77;101144.00;12256818;19;19929;-84
2023/04/16 03:27:20;;;;;;;;;;;14.70;56.20;;;13.48;57.71;101160.13;12248239;19;19919;-84
2023/04/16 03:31:23;;;;;;;;;;;14.70;56.20;;;13.39;57.77;101145.75;12255057;19;19922;-85
2023/04/16 03:35:26;;;;;;;;;;;14.70;56.20;;;13.43;57.83;101160.41;12253574;19;20248;-84
2023/04/16 03:39:28;;;;;;;;;;;14.70;56.30;;;13.41;57.74;101156.19;12253919;19;19919;-84
2023/04/16 03:43:29;;;;;;;;;;;14.70;56.30;;;13.45;57.84;101165.56;12250661;19;19979;-84
2023/04/16 03:47:31;;;;;;;;;;;14.60;56.20;;;13.34;57.91;101150.47;12248031;19;19926;-84
2023/04/16 03:51:36;;;;;;;;;;;14.60;56.40;;;13.39;57.79;101171.16;12251518;19;19931;-83
2023/04/16 03:55:40;;;;;;;;;;;14.60;56.30;;;13.18;58.01;101136.56;12252387;19;19917;-84
2023/04/16 03:59:43;;;;;;;;;;;14.60;56.30;;;13.27;57.86;101157.00;12251485;19;19922;-84
2023/04/16 04:03:45;;;;;;;;;;;14.60;56.40;;;13.43;57.81;101193.66;12252018;19;20237;-84
2023/04/16 04:07:47;;;;;;;;;;;14.60;56.70;;;13.35;57.92;101180.16;12247369;19;20326;-84
2023/04/16 04:11:49;;;;;;;;;;;14.60;56.30;;;13.14;57.87;101158.63;12252759;19;19932;-84
2023/04/16 04:15:51;;;;;;;;;;;14.60;56.40;;;13.34;57.78;101200.31;12250565;19;19923;-84
2023/04/16 04:19:54;;;;;;;;;;;14.60;56.60;;;13.28;57.92;101190.16;12252886;19;19943;-84
2023/04/16 04:23:56;;;;;;;;;;;14.60;56.50;;;13.39;57.80;101213.13;12251022;19;19922;-84
2023/04/16 04:27:58;;;;;;;;;;;14.60;56.40;;;13.34;57.85;101210.81;12247799;19;20013;-84
2023/04/16 04:31:59;;;;;;;;;;;14.50;56.40;;;13.26;57.97;101216.50;12252450;19;19974;-84
2023/04/16 04:36:01;;;;;;;;;;;14.50;56.30;;;13.24;58.01;101215.69;12247639;19;19926;-84
2023/04/16 04:40:05;;;;;;;;;;;14.50;56.30;;;13.19;58.01;101203.78;12249898;19;19918;-84
2023/04/16 04:44:09;;;;;;;;;;;14.50;56.30;;;13.26;58.00;101210.41;12248939;19;19919;-83
2023/04/16 04:48:11;;;;;;;;;;;14.50;56.60;;;13.14;57.84;101205.84;12250355;19;19914;-84
2023/04/16 04:52:13;;;;;;;;;;;14.40;56.60;;;13.07;57.93;101206.19;12252294;19;20331;-85
2023/04/16 04:56:15;;;;;;;;;;;14.40;56.50;;;13.11;57.89;101214.72;12252901;19;19919;-84
2023/04/16 05:00:17;;;;;;;;;;;14.40;56.50;;;12.96;58.02;101197.25;12253672;19;19922;-84
2023/04/16 05:04:26;;;;;;;;;;;14.40;56.60;;;13.11;57.95;101219.97;12251524;19;20625;-85
2023/04/16 05:08:28;;;;;;;;;;;14.40;56.60;;;13.15;58.01;101237.22;12251254;19;20258;-84
2023/04/16 05:12:29;;;;;;;;;;;14.40;56.50;;;13.11;58.05;101235.69;12251626;19;19951;-84
2023/04/16 05:16:31;;;;;;;;;;;14.30;56.50;;;13.19;57.98;101248.38;12251765;19;19915;-84
2023/04/16 05:20:33;;;;;;;;;;;14.40;56.60;;;13.16;57.98;101245.94;12251549;19;19915;-84
2023/04/16 05:24:34;;;;;;;;;;;14.40;56.60;;;13.10;58.02;101249.75;12249707;19;19922;-84
2023/04/16 05:28:36;;;;;;;;;;;14.40;56.90;;;13.07;57.92;101244.69;12247655;19;19935;-84
2023/04/16 05:32:38;;;;;;;;;;;14.40;56.70;;;13.06;58.01;101253.47;12248402;19;19950;-84
2023/04/16 05:36:40;;;;;;;;;;;14.40;56.60;;;13.01;57.97;101252.88;12250896;19;19922;-84
2023/04/16 05:40:42;;;;;;;;;;;14.30;56.60;;;13.15;57.96;101284.44;12247561;19;19934;-84
2023/04/16 05:44:43;;;;;;;;;;;14.30;56.90;;;13.05;58.01;101271.00;12248075;19;19915;-84
2023/04/16 05:48:45;;;;;;;;;;;14.30;56.70;;;13.07;58.06;101281.41;12243189;19;19935;-84
2023/04/16 05:52:46;;;;;;;;;;;14.30;56.70;;;12.95;58.08;101271.59;12245846;19;19923;-84
2023/04/16 05:56:48;;;;;;;;;;;14.20;57.10;;;12.94;58.03;101275.16;12245558;19;19911;-84
2023/04/16 06:00:50;;;;;;;;;;;14.20;56.80;;;12.93;58.06;101283.94;12245376;19;19911;-84
2023/04/16 06:04:52;;;;;;;;;;;14.20;57.20;;;12.94;58.11;101289.09;12244147;19;19907;-84
2023/04/16 06:08:53;;;;;;;;;;;14.20;56.90;;;13.02;58.21;101301.78;12245058;19;19918;-84
2023/04/16 06:12:55;;;;;;;;;;;14.20;57.00;;;12.97;58.13;101295.97;12247323;19;19923;-84
2023/04/16 06:16:57;;;;;;;;;;;14.20;57.00;;;12.98;58.10;101301.09;12245922;19;19915;-84
2023/04/16 06:20:59;;;;;;;;;;;14.20;56.90;;;12.98;58.11;101297.63;12244653;19;19922;-84
2023/04/16 06:25:00;;;;;;;;;;;14.20;57.10;;;12.98;58.15;101302.88;12243020;19;19951;-84
2023/04/16 06:29:02;;;;;;;;;;;14.20;57.20;;;12.86;58.15;101287.84;12242813;19;20246;-84
2023/04/16 06:33:04;;;;;;;;;;;14.20;57.00;;;12.95;58.15;101318.78;12246107;19;19918;-84
2023/04/16 06:37:05;;;;;;;;;;;14.10;57.00;;;12.97;58.21;101314.31;12243073;19;19914;-84
2023/04/16 06:41:07;;;;;;;;;;;14.10;57.00;;;12.83;58.07;101297.56;12245889;19;19956;-84
2023/04/16 06:45:09;;;;;;;;;;;14.20;57.00;;;12.99;58.21;101315.91;12243216;19;20297;-84
2023/04/16 06:49:11;;;;;;;;;;;14.20;56.90;;;12.99;58.16;101318.53;12240321;19;19924;-84
2023/04/16 06:53:12;;;;;;;;;;;14.20;57.30;;;13.03;58.07;101332.31;12244032;19;19922;-83
2023/04/16 06:57:15;;;;;;;;;;;14.20;57.00;;;12.97;58.18;101324.78;12238034;19;19922;-84
2023/04/16 07:01:17;;;;;;;;;;;14.20;57.20;;;12.89;58.22;101311.25;12247668;19;19922;-86
2023/04/16 07:05:18;;;;;;;;;;;14.20;56.90;;;12.89;58.26;101319.97;12250967;19;19911;-84
2023/04/16 07:09:20;;;;;;;;;;;14.20;57.20;;;13.00;58.25;101348.22;12249633;19;19919;-84
2023/04/16 07:13:22;;;;;;;;;;;14.20;57.20;;;12.98;58.35;101339.59;12253577;19;20416;-84
2023/04/16 07:17:23;;;;;;;;;;;14.20;57.20;;;12.97;58.18;101337.91;12251910;19;19935;-84
2023/04/16 07:21:25;;;;;;;;;;;14.20;57.10;;;12.99;58.33;101341.28;12256115;19;19911;-84
2023/04/16 07:25:26;;;;;;;;;;;14.20;57.10;;;13.02;58.26;101351.59;12252829;19;19974;-84
2023/04/16 07:29:28;;;;;;;;;;;14.20;57.30;;;12.97;58.30;101345.78;12257025;19;19915;-84
2023/04/16 07:33:29;;;;;;;;;;;14.20;57.10;;;12.82;58.24;101323.84;12253644;19;19923;-85
2023/04/16 07:37:31;;;;;;;;;;;14.20;57.20;;;12.93;58.39;101342.44;12245347;19;19930;-85
2023/04/16 07:41:33;;;;;;;;;;;14.20;57.20;;;12.97;58.37;101353.63;12256172;19;19910;-85
2023/04/16 07:45:34;;;;;;;;;;;14.20;57.10;;;13.05;58.34;101369.78;12252342;19;20337;-85
2023/04/16 07:49:35;;;;;;;;;;;14.20;57.10;;;13.01;58.37;101371.72;12254868;19;19915;-84
2023/04/16 07:53:37;;;;;;;;;;;14.20;57.10;;;12.97;58.23;101359.72;12255435;19;19915;-85
2023/04/16 07:57:39;;;;;;;;;;;14.20;57.10;;;12.98;58.43;101366.63;12250479;19;20324;-84
2023/04/16 08:01:41;;;;;;;;;;;14.30;57.60;;;13.04;58.51;101379.44;12255440;19;20004;-85
2023/04/16 08:05:42;;;;;;;;;;;14.30;57.20;;;13.02;58.37;101376.03;12250728;19;19937;-84
2023/04/16 08:09:48;;;;;;;;;;;14.30;57.20;;;13.14;58.47;101392.88;12253359;19;19915;-84
2023/04/16 08:13:50;;;;;;;;;;;14.30;57.20;;;13.05;58.46;101375.88;12250416;19;19956;-85
2023/04/16 08:17:51;;;;;;;;;;;14.30;57.30;;;13.07;58.47;101383.66;12251060;19;19919;-85
2023/04/16 08:21:55;;;;;;;;;;;14.30;57.20;;;13.14;58.44;101398.09;12240414;19;19919;-84
2023/04/16 08:25:56;;;;;;;;;;;14.40;57.20;;;13.17;58.45;101405.81;12248262;19;19918;-84
2023/04/16 08:29:58;;;;;;;;;;;14.40;57.20;;;13.19;58.49;101414.44;12251750;19;20366;-84
2023/04/16 08:34:00;;;;;;;;;;;14.40;57.40;;;13.15;58.51;101399.81;12253469;19;19933;-84
2023/04/16 08:38:03;;;;;;;;;;;14.40;57.20;;;13.09;58.58;101392.28;12249765;19;19926;-84
2023/04/16 08:42:09;;;;;;;;;;;14.40;57.40;;;13.26;58.62;101423.72;12249422;19;19931;-84
2023/04/16 08:46:15;;;;;;;;;;;14.50;57.30;;;13.22;58.62;101416.06;12246020;19;20220;-84
2023/04/16 08:50:27;;;;;;;;;;;14.50;57.20;;;13.10;58.52;101395.75;12250303;19;19922;-85
2023/04/16 08:54:47;;;;;;;;;;;14.50;57.20;;;13.24;58.68;101417.66;12251421;19;19918;-84
2023/04/16 08:58:50;;;;;;;;;;;14.50;57.20;;;13.31;58.60;101425.22;12244655;19;19922;-85
2023/04/16 09:02:52;;;;;;;;;;;14.60;57.30;;;13.28;58.51;101420.97;12250213;19;19994;-85
2023/04/16 09:06:55;;;;;;;;;;;14.60;57.20;;;13.19;58.51;101403.09;12241276;19;19938;-85
2023/04/16 09:10:57;;;;;;;;;;;14.60;57.10;;;13.33;58.64;101428.59;12249080;19;19918;-84
2023/04/16 09:15:01;;;;;;;;;;;14.60;57.10;;;13.33;58.74;101432.06;12249483;19;19919;-84
2023/04/16 09:19:04;;;;;;;;;;;14.60;57.30;;;13.30;58.67;101434.03;12241278;19;19939;-86
2023/04/16 09:23:05;;;;;;;;;;;14.60;57.30;;;13.24;58.66;101430.78;12249204;19;19907;-84
2023/04/16 09:27:08;;;;;;;;;;;14.60;57.20;;;13.23;58.54;101429.09;12243219;19;20008;-84
2023/04/16 09:31:17;;;;;;;;;;;14.60;57.20;;;13.34;58.56;101446.03;12248008;19;19919;-84
2023/04/16 09:35:19;;;;;;;;;;;14.60;57.20;;;13.30;58.63;101440.09;12248624;19;19930;-83
2023/04/16 09:39:21;;;;;;;;;;;14.60;57.40;;;13.36;58.79;101454.66;12246067;19;20258;-84
2023/04/16 09:43:25;;;;;;;;;;;14.60;57.60;;;13.40;58.61;101458.81;12246568;19;19929;-83
2023/04/16 09:47:43;;;;;;;;;;;14.60;57.30;;;13.46;58.75;101474.22;12244737;19;19919;-84
2023/04/16 09:51:49;;;;;;;;;;;14.70;57.40;;;13.47;58.78;101468.91;12247071;19;19918;-83
2023/04/16 09:55:54;;;;;;;;;;;14.70;57.70;;;13.44;58.71;101458.53;12246135;19;19922;-84
2023/04/16 10:00:07;;;;;;;;;;;14.70;57.60;;;13.58;58.79;101478.78;12245458;19;19927;-83
2023/04/16 10:04:09;;;;;;;;;;;14.80;57.90;;;13.49;58.75;101459.16;12247176;19;19930;-83
2023/04/16 10:08:12;;;;;;;;;;;14.80;57.90;;;13.60;58.81;101483.94;12244135;19;19937;-84
2023/04/16 10:12:14;;;;;;;;;;;14.80;58.10;;;13.54;58.73;101469.38;12244630;19;19919;-84
2023/04/16 10:16:16;;;;;;;;;;;14.90;57.70;;;13.65;58.85;101498.50;12242736;19;19915;-84
2023/04/16 10:20:18;;;;;;;;;;;14.90;57.70;;;13.67;58.69;101501.06;12244797;19;20344;-84
2023/04/16 10:24:19;;;;;;;;;;;14.90;57.60;;;13.65;58.76;101481.91;12244496;19;19919;-84
2023/04/16 10:28:22;;;;;;;;;;;14.90;57.60;;;13.67;58.79;101480.06;12241980;19;19936;-84
2023/04/16 10:32:27;;;;;;;;;;;14.90;57.90;;;13.67;58.85;101475.66;12243764;19;19927;-83
2023/04/16 10:36:28;;;;;;;;;;;15.00;57.90;;;13.85;58.89;101493.91;12245814;19;19915;-83
2023/04/16 10:40:30;;;;;;;;;;;15.00;58.00;;;13.85;58.91;101478.16;12256517;19;19918;-85
2023/04/16 10:44:32;;;;;;;;;;;15.10;58.10;;;13.82;58.86;101468.66;12254982;19;19907;-84
2023/04/16 10:48:34;;;;;;;;;;;15.20;58.10;;;13.54;58.83;101413.44;12253013;19;19915;-86
2023/04/16 10:52:36;;;;;;;;;;;15.20;58.10;;;13.94;58.89;101475.03;12258117;19;19920;-85
2023/04/16 10:56:38;;;;;;;;;;;15.20;57.80;;;14.04;58.92;101483.19;12253460;19;19925;-85
2023/04/16 11:00:52;;;;;;;;;;;15.30;57.80;;;14.04;59.04;101475.31;12254791;19;19977;-85
2023/04/16 11:04:55;;;;;;;;;;;15.40;58.10;;;14.11;58.96;101474.88;12256472;19;20401;-84
2023/04/16 11:08:57;;;;;;;;;;;15.50;58.00;;;14.19;58.99;101482.31;12249702;19;19921;-84
2023/04/16 11:12:59;;;;;;;;;;;15.50;58.00;;;14.23;58.82;101497.00;12256249;19;19922;-84
2023/04/16 11:17:02;;;;;;;;;;;15.50;57.80;;;14.02;58.81;101464.94;12250456;19;19915;-84
2023/04/16 11:21:10;;;;;;;;;;;15.50;57.70;;;14.01;58.94;101465.84;12253429;19;19922;-84
2023/04/16 11:25:12;;;;;;;;;;;15.50;57.60;;;14.29;59.01;101517.63;12250452;19;19918;-83
2023/04/16 11:29:16;;;;;;;;;;;15.60;57.60;;;14.19;58.98;101503.34;12248419;19;19948;-83
2023/04/16 11:33:18;;;;;;;;;;;15.60;57.70;;;14.22;59.02;101508.41;12250643;19;19938;-83
2023/04/16 11:37:31;;;;;;;;;;;15.50;57.50;;;14.22;58.90;101502.31;12248787;19;19927;-85
2023/04/16 11:41:32;;;;;;;;;;;15.60;57.40;;;14.19;58.87;101503.34;12250267;19;20557;-84
2023/04/16 11:45:34;;;;;;;;;;;15.60;57.50;;;14.17;58.84;101511.28;12249343;19;20253;-84
2023/04/16 11:49:35;;;;;;;;;;;15.50;57.40;;;14.19;58.90;101502.50;12248258;19;20011;-84
2023/04/16 11:53:47;;;;;;;;;;;15.50;57.30;;;14.24;58.99;101516.22;12250003;19;19923;-83
2023/04/16 11:57:50;;;;;;;;;;;15.60;57.50;;;14.28;59.02;101518.56;12249647;19;20329;-84
2023/04/16 12:01:54;;;;;;;;;;;15.60;57.60;;;14.35;58.95;101532.19;12251675;19;20711;-84
2023/04/16 12:06:06;;;;;;;;;;;15.60;57.60;;;14.35;58.89;101538.28;12249825;19;19978;-85
2023/04/16 12:10:08;;;;;;;;;;;15.60;57.50;;;14.26;58.92;101525.69;12250131;19;19915;-85
2023/04/16 12:14:11;;;;;;;;;;;15.60;57.40;;;14.34;58.89;101533.16;12249865;19;19922;-85
2023/04/16 12:18:15;;;;;;;;;;;15.60;57.40;;;14.36;58.71;101537.34;12245641;19;19926;-83
2023/04/16 12:22:17;;;;;;;;;;;15.60;57.50;;;14.31;58.87;101535.91;12243911;19;19915;-83
2023/04/16 12:26:18;;;;;;;;;;;15.60;57.70;;;14.30;58.92;101534.25;12246950;19;20234;-83
2023/04/16 12:30:22;;;;;;;;;;;15.60;57.40;;;14.36;58.86;101541.75;12251344;19;19922;-84
2023/04/16 12:34:23;;;;;;;;;;;15.60;57.30;;;14.22;58.87;101525.97;12251096;19;19923;-83
2023/04/16 12:38:25;;;;;;;;;;;15.60;57.30;;;14.04;58.90;101504.22;12247676;19;19943;-83
2023/04/16 12:42:27;;;;;;;;;;;15.50;57.20;;;14.09;58.67;101516.13;12251789;19;19919;-83
2023/04/16 12:46:28;;;;;;;;;;;15.50;57.40;;;14.19;58.92;101531.41;12249099;19;19910;-83
2023/04/16 12:50:29;;;;;;;;;;;15.50;57.40;;;14.19;58.85;101529.59;12250172;19;20341;-83
2023/04/16 12:54:31;;;;;;;;;;;15.50;57.30;;;14.24;58.78;101555.63;12249991;19;20633;-83
2023/04/16 12:58:33;;;;;;;;;;;15.50;57.60;;;14.23;58.99;101557.41;12246356;19;19943;-83
2023/04/16 13:02:35;;;;;;;;;;;15.50;57.30;;;14.09;58.96;101542.41;12249931;19;19915;-84
2023/04/16 13:06:39;;;;;;;;;;;15.40;58.00;;;14.18;58.84;101572.59;12248034;19;19926;-83
2023/04/16 13:10:41;;;;;;;;;;;15.40;57.90;;;14.11;58.83;101569.44;12247784;19;19918;-84
2023/04/16 13:14:43;;;;;;;;;;;15.40;57.80;;;13.82;58.83;101536.94;12247694;19;19915;-84
2023/04/16 13:18:45;;;;;;;;;;;15.30;57.70;;;13.91;58.91;101567.09;12246944;19;19937;-83
2023/04/16 13:22:46;;;;;;;;;;;15.30;57.80;;;13.81;58.94;101550.16;12247660;19;20256;-83
2023/04/16 13:26:51;;;;;;;;;;;15.20;57.80;;;13.78;59.05;101564.31;12244882;19;19934;-83
2023/04/16 13:30:53;;;;;;;;;;;15.10;57.60;;;13.82;58.94;101573.69;12247446;19;19926;-84
2023/04/16 13:34:54;;;;;;;;;;;15.10;57.60;;;13.85;58.92;101573.53;12247311;19;19915;-84
2023/04/16 13:38:57;;;;;;;;;;;15.00;57.70;;;13.86;58.97;101579.63;12241926;19;20268;-84
2023/04/16 13:42:59;;;;;;;;;;;15.00;58.10;;;13.85;59.00;101581.41;12248360;19;19920;-84
2023/04/16 13:47:01;;;;;;;;;;;15.00;57.70;;;13.76;58.98;101567.94;12240653;19;19933;-84
2023/04/16 13:51:03;;;;;;;;;;;15.00;57.70;;;13.82;58.92;101573.69;12244006;19;19922;-84
2023/04/16 13:55:04;;;;;;;;;;;15.00;57.70;;;13.81;58.90;101573.78;12247245;19;19934;-82
2023/04/16 13:59:06;;;;;;;;;;;15.00;57.80;;;13.87;58.93;101576.91;12242772;19;20479;-82
2023/04/16 14:03:08;;;;;;;;;;;15.00;57.50;;;13.85;58.92;101577.91;12245178;19;19918;-83
2023/04/16 14:07:10;;;;;;;;;;;15.10;57.70;;;13.83;58.88;101571.94;12240510;19;19923;-83
2023/04/16 14:11:11;;;;;;;;;;;15.10;57.60;;;13.85;58.88;101580.53;12247106;19;20344;-84
2023/04/16 14:15:13;;;;;;;;;;;15.10;57.80;;;13.80;58.93;101572.94;12256888;19;19918;-84
2023/04/16 14:19:15;;;;;;;;;;;15.00;57.60;;;13.59;58.86;101537.38;12251720;19;19932;-84
2023/04/16 14:23:17;;;;;;;;;;;15.10;57.60;;;13.81;58.92;101566.75;12257937;19;19915;-84
2023/04/16 14:27:18;;;;;;;;;;;15.10;57.50;;;13.81;58.94;101566.75;12250253;19;19974;-84
2023/04/16 14:31:19;;;;;;;;;;;15.10;57.80;;;13.73;59.00;101559.28;12255684;19;20008;-84
2023/04/16 14:35:22;;;;;;;;;;;15.10;57.70;;;13.74;59.04;101560.13;12255222;19;20273;-84
2023/04/16 14:39:23;;;;;;;;;;;15.10;57.70;;;13.80;58.90;101569.44;12250404;19;19927;-84
2023/04/16 14:43:25;;;;;;;;;;;15.10;57.70;;;13.97;59.07;101594.81;12254836;19;19922;-84
2023/04/16 14:47:27;;;;;;;;;;;15.10;57.70;;;13.89;58.94;101580.31;12252561;19;19919;-83
2023/04/16 14:51:30;;;;;;;;;;;15.20;57.70;;;13.87;58.98;101574.28;12254557;19;19923;-83
2023/04/16 14:55:32;;;;;;;;;;;15.20;57.80;;;13.73;58.81;101547.97;12248018;19;19923;-84
2023/04/16 14:59:33;;;;;;;;;;;15.20;58.00;;;13.89;58.90;101580.31;12251570;19;19914;-83
2023/04/16 15:03:35;;;;;;;;;;;15.20;58.10;;;13.99;58.95;101595.53;12252208;19;19922;-85
2023/04/16 15:07:37;;;;;;;;;;;15.20;57.90;;;13.89;59.09;101593.44;12250259;19;19919;-84
2023/04/16 15:11:38;;;;;;;;;;;15.20;57.50;;;13.92;59.06;101595.88;12253039;19;19931;-84
2023/04/16 15:15:40;;;;;;;;;;;15.20;57.70;;;13.93;59.10;101597.59;12250790;19;20267;-83
2023/04/16 15:19:42;;;;;;;;;;;15.20;57.90;;;13.93;58.97;101599.34;12251910;19;20465;-84
2023/04/16 15:23:43;;;;;;;;;;;15.20;57.90;;;13.87;58.93;101602.31;12252745;19;19931;-83
2023/04/16 15:27:45;;;;;;;;;;;15.10;57.60;;;13.91;59.05;101603.88;12249081;19;19942;-84
2023/04/16 15:31:46;;;;;;;;;;;15.10;57.60;;;13.81;58.87;101598.25;12254111;19;19935;-83
2023/04/16 15:35:50;;;;;;;;;;;15.10;57.50;;;13.69;59.07;101581.41;12250507;19;19919;-83
2023/04/16 15:39:51;;;;;;;;;;;15.10;57.70;;;13.86;58.99;101619.88;12254672;19;19922;-84
2023/04/16 15:43:52;;;;;;;;;;;15.10;57.70;;;13.80;59.03;101611.44;12252887;19;20014;-84
2023/04/16 15:47:54;;;;;;;;;;;15.10;57.60;;;13.80;59.02;101616.72;12249288;19;19950;-83
2023/04/16 15:51:56;;;;;;;;;;;15.10;57.50;;;13.76;59.05;101615.19;12250078;19;19922;-83
2023/04/16 15:55:57;;;;;;;;;;;15.10;57.60;;;13.82;59.04;101627.97;12252448;19;19943;-83
2023/04/16 15:59:59;;;;;;;;;;;15.00;57.50;;;13.84;59.16;101629.59;12249954;19;19931;-84
2023/04/16 16:04:00;;;;;;;;;;;15.10;57.70;;;13.82;59.01;101639.31;12252939;19;19926;-83
2023/04/16 16:08:02;;;;;;;;;;;15.10;57.70;;;13.78;59.17;101640.44;12249418;19;19918;-83
2023/04/16 16:12:04;;;;;;;;;;;15.00;57.60;;;13.83;59.01;101645.44;12248978;19;19947;-84
2023/04/16 16:16:06;;;;;;;;;;;15.00;57.50;;;13.81;59.01;101648.13;12249862;19;19919;-84
2023/04/16 16:20:11;;;;;;;;;;;15.00;57.60;;;13.72;59.00;101633.75;12249485;19;19918;-84
2023/04/16 16:24:13;;;;;;;;;;;15.00;57.90;;;13.73;59.01;101652.97;12249054;19;19922;-84
2023/04/16 16:28:15;;;;;;;;;;;15.00;57.80;;;13.67;59.09;101641.00;12247750;19;19926;-85
2023/04/16 16:32:16;;;;;;;;;;;15.00;57.90;;;13.75;59.01;101655.50;12249789;19;20325;-84
2023/04/16 16:36:18;;;;;;;;;;;14.90;57.80;;;13.50;59.02;101631.41;12249112;19;19911;-83
2023/04/16 16:40:19;;;;;;;;;;;14.90;57.70;;;13.65;59.06;101655.97;12249073;19;19922;-83
2023/04/16 16:44:21;;;;;;;;;;;14.90;57.60;;;13.57;59.06;101645.03;12252011;19;19960;-83
2023/04/16 16:48:23;;;;;;;;;;;14.90;57.60;;;13.60;59.11;101647.50;12247150;19;19975;-84
2023/04/16 16:52:25;;;;;;;;;;;14.90;57.60;;;13.64;59.21;101663.97;12251325;19;19930;-84
2023/04/16 16:56:26;;;;;;;;;;;14.80;57.70;;;13.51;58.99;101653.25;12248799;19;19927;-84
2023/04/16 17:00:28;;;;;;;;;;;14.80;57.80;;;13.52;58.99;101660.19;12249509;19;19915;-84
2023/04/16 17:04:30;;;;;;;;;;;14.80;58.10;;;13.51;59.03;101669.00;12248344;19;19945;-84
2023/04/16 17:08:32;;;;;;;;;;;14.80;57.70;;;13.41;59.16;101673.88;12245118;19;19930;-84
2023/04/16 17:12:34;;;;;;;;;;;14.70;57.70;;;13.35;59.07;101666.31;12250483;19;19914;-84
2023/04/16 17:16:36;;;;;;;;;;;14.70;57.70;;;13.44;59.02;101693.84;12245808;19;19915;-84
2023/04/16 17:20:37;;;;;;;;;;;14.60;57.60;;;13.17;59.03;101654.94;12249979;19;19919;-84
2023/04/16 17:24:39;;;;;;;;;;;14.60;57.50;;;13.35;59.21;101695.19;12248515;19;19910;-83
2023/04/16 17:28:40;;;;;;;;;;;14.60;57.50;;;13.19;58.96;101673.25;12246841;19;19918;-83
2023/04/16 17:32:42;;;;;;;;;;;14.50;57.40;;;13.27;59.14;101695.56;12245341;19;19915;-84
2023/04/16 17:36:45;;;;;;;;;;;14.50;57.60;;;13.28;59.10;101702.53;12246195;19;19921;-83
2023/04/16 17:40:47;;;;;;;;;;;14.40;57.80;;;13.15;59.03;101701.41;12247365;19;19919;-83
2023/04/16 17:44:49;;;;;;;;;;;14.50;57.70;;;13.09;59.06;101693.84;12244245;19;19978;-82
2023/04/16 17:48:50;;;;;;;;;;;14.40;57.70;;;13.16;59.09;101720.63;12242257;19;19926;-83
2023/04/16 17:52:52;;;;;;;;;;;14.40;57.70;;;12.81;59.15;101663.75;12246787;19;19919;-83
2023/04/16 17:56:53;;;;;;;;;;;14.30;57.60;;;13.06;58.98;101707.09;12244523;19;19925;-83
2023/04/16 18:00:55;;;;;;;;;;;14.40;57.60;;;13.13;59.05;101732.09;12243081;19;19986;-83
2023/04/16 18:04:56;;;;;;;;;;;14.30;57.40;;;13.07;59.06;101730.63;12245710;19;19922;-83
2023/04/16 18:08:57;;;;;;;;;;;14.30;57.50;;;13.09;59.06;101734.94;12243199;19;20261;-83